Terminal Aerodrome Forecast
Issued by NWS

Home | Current Version | Previous Version | Text Only | Print | Product List | Glossary On
Versions: 1 2 3 4 5 6 7 8 9 10 11 12 13 14 15 16
505
FTUS46 KMTR 060529
TAFMRY
TAF
KMRY 060529Z 0606/0706 11004KT P6SM SCT015 BKN060
     FM060900 VRB03KT P6SM BKN015
     FM061700 23005KT P6SM -SHRA BKN025 OVC050
     FM062100 23006KT P6SM VCSH BKN035 BKN060
     FM070300 24005KT P6SM BKN060=

USA.gov is the U.S. government's official web portal to all federal, state and local government web resources and services.